createdAt,value
2023-11-04T00:00:28.513Z,0.95
2023-11-04T00:03:21.527Z,0.90
2023-11-04T00:05:54.993Z,0.82
2023-11-04T00:08:27.930Z,0.80
2023-11-04T00:11:00.741Z,0.60
2023-11-04T00:13:34.133Z,1.02
2023-11-04T00:16:10.606Z,1.10
2023-11-04T00:18:43.887Z,1.20
2023-11-04T00:21:16.901Z,1.60
2023-11-04T00:23:49.935Z,1.75
2023-11-04T00:26:22.613Z,1.00
2023-11-04T00:28:59.912Z,1.20
2023-11-04T00:31:35.371Z,1.67
2023-11-04T00:34:08.494Z,1.35
2023-11-04T00:36:41.282Z,1.10
2023-11-04T00:39:15.878Z,1.27
2023-11-04T00:41:48.539Z,1.42
2023-11-04T00:44:22.327Z,1.00
2023-11-04T00:46:55.448Z,1.05
2023-11-04T00:49:28.693Z,1.23
2023-11-04T00:52:01.371Z,0.90
2023-11-04T00:54:35.081Z,1.33
2023-11-04T00:57:09.243Z,1.63
2023-11-04T00:59:43.074Z,3.53
2023-11-04T01:02:15.775Z,2.00
2023-11-04T01:04:49.013Z,1.98
2023-11-04T01:07:21.765Z,2.60
2023-11-04T01:09:54.954Z,1.30
2023-11-04T01:12:28.115Z,2.10
2023-11-04T01:15:06.624Z,3.15
2023-11-04T01:17:39.694Z,3.28
2023-11-04T01:20:13.057Z,3.30
2023-11-04T01:22:45.736Z,3.88
2023-11-04T01:25:18.787Z,4.78
2023-11-04T01:27:51.407Z,3.45
2023-11-04T01:30:24.553Z,1.38
2023-11-04T01:32:59.048Z,0.65
2023-11-04T01:35:32.084Z,1.17
2023-11-04T01:38:04.796Z,1.27
2023-11-04T01:40:37.868Z,0.88
2023-11-04T01:43:10.677Z,0.90
2023-11-04T01:45:43.621Z,0.70
2023-11-04T01:48:16.553Z,0.88
2023-11-04T01:50:50.528Z,0.75
2023-11-04T01:53:23.358Z,1.20
2023-11-04T01:55:57.765Z,1.50
2023-11-04T01:58:30.923Z,5.35
2023-11-04T02:01:05.964Z,2.40
2023-11-04T02:03:39.367Z,1.10
2023-11-04T02:06:12.601Z,3.00
2023-11-04T02:08:45.350Z,0.98
2023-11-04T02:11:18.436Z,3.15
2023-11-04T02:13:51.501Z,3.25
2023-11-04T02:16:24.565Z,1.90
2023-11-04T02:18:57.515Z,1.00
2023-11-04T02:21:31.078Z,0.75
2023-11-04T02:24:04.302Z,1.38
2023-11-04T02:26:37.585Z,1.10
2023-11-04T02:29:10.310Z,0.85
2023-11-04T02:31:44.970Z,0.70
2023-11-04T02:34:17.876Z,0.88
2023-11-04T02:36:51.164Z,0.80
2023-11-04T02:39:24.159Z,0.88
2023-11-04T02:41:57.567Z,0.90
2023-11-04T02:44:30.257Z,1.10
2023-11-04T02:47:03.578Z,1.50
2023-11-04T02:49:36.385Z,0.90
2023-11-04T02:54:56.249Z,1.00
2023-11-04T02:57:29.339Z,0.75
2023-11-04T03:00:02.742Z,1.85
2023-11-04T03:02:35.873Z,1.02
2023-11-04T03:05:24.813Z,3.17
2023-11-04T03:08:05.462Z,1.30
2023-11-04T03:10:38.918Z,0.85
2023-11-04T03:13:12.668Z,0.70
2023-11-04T03:15:45.336Z,0.90
2023-11-04T03:18:19.150Z,1.10
2023-11-04T03:20:51.992Z,1.00
2023-11-04T03:23:25.384Z,1.00
2023-11-04T03:25:58.013Z,0.75
2023-11-04T03:28:30.997Z,0.90
2023-11-04T03:31:05.143Z,1.90
2023-11-04T03:33:39.048Z,1.17
2023-11-04T03:36:11.836Z,1.13
2023-11-04T03:38:45.463Z,1.00
2023-11-04T03:41:20.946Z,1.33
2023-11-04T03:43:53.962Z,0.70
2023-11-04T03:46:26.658Z,0.95
2023-11-04T03:49:00.120Z,0.93
2023-11-04T03:51:32.965Z,1.20
2023-11-04T03:54:06.170Z,1.30
2023-11-04T03:56:39.107Z,1.02
2023-11-04T03:59:12.212Z,1.10
2023-11-04T04:01:44.861Z,1.20
2023-11-04T04:04:17.970Z,1.50
2023-11-04T04:06:52.551Z,2.22
2023-11-04T04:09:25.639Z,1.27
2023-11-04T04:11:59.195Z,1.05
2023-11-04T04:14:32.295Z,1.00
2023-11-04T04:17:05.081Z,1.85
2023-11-04T04:19:38.695Z,1.42
2023-11-04T04:22:11.858Z,1.98
2023-11-04T04:24:44.933Z,1.50
2023-11-04T04:27:17.917Z,1.55
2023-11-04T04:29:55.114Z,1.58
2023-11-04T04:32:27.846Z,1.58
2023-11-04T04:35:01.009Z,2.00
2023-11-04T04:37:34.591Z,1.65
2023-11-04T04:40:08.014Z,1.50
2023-11-04T04:42:40.880Z,1.63
2023-11-04T04:45:13.998Z,1.35
2023-11-04T04:47:46.562Z,1.58
2023-11-04T04:50:19.947Z,1.33
2023-11-04T04:52:52.621Z,1.73
2023-11-04T04:55:25.694Z,1.80
2023-11-04T04:57:58.612Z,1.38
2023-11-04T05:00:31.882Z,1.30
2023-11-04T05:03:05.255Z,1.77
2023-11-04T05:05:38.964Z,1.40
2023-11-04T05:08:11.658Z,1.73
2023-11-04T05:10:44.689Z,1.90
2023-11-04T05:13:17.451Z,2.08
2023-11-04T05:15:52.309Z,2.13
2023-11-04T05:18:25.232Z,2.22
2023-11-04T05:21:00.934Z,1.90
2023-11-04T05:23:33.577Z,1.55
2023-11-04T05:26:06.839Z,1.33
2023-11-04T05:28:41.311Z,1.75
2023-11-04T05:31:14.304Z,1.60
2023-11-04T05:33:47.510Z,1.40
2023-11-04T05:36:21.135Z,1.52
2023-11-04T05:38:53.933Z,1.40
2023-11-04T05:41:26.935Z,2.47
2023-11-04T05:43:59.565Z,1.73
2023-11-04T05:46:34.180Z,1.40
2023-11-04T05:49:07.372Z,1.30
2023-11-04T05:51:40.495Z,2.10
2023-11-04T05:54:13.829Z,2.13
2023-11-04T05:56:46.793Z,1.80
2023-11-04T05:59:19.515Z,1.70
2023-11-04T06:01:52.606Z,1.70
2023-11-04T06:04:25.393Z,1.85
2023-11-04T06:06:58.526Z,2.15
2023-11-04T06:09:33.536Z,2.90
2023-11-04T06:12:07.390Z,2.17
2023-11-04T06:14:40.087Z,2.00
2023-11-04T06:17:14.064Z,2.38
2023-11-04T06:19:47.024Z,2.55
2023-11-04T06:22:21.424Z,2.33
2023-11-04T06:24:54.454Z,2.70
2023-11-04T06:27:27.630Z,2.45
2023-11-04T06:30:00.395Z,2.00
2023-11-04T06:32:33.511Z,2.03
2023-11-04T06:35:07.157Z,1.95
2023-11-04T06:37:40.588Z,1.92
2023-11-04T06:40:14.658Z,2.50
2023-11-04T06:42:47.644Z,1.80
2023-11-04T06:45:20.391Z,1.98
2023-11-04T06:47:53.641Z,1.77
2023-11-04T06:50:26.778Z,2.20
2023-11-04T06:52:59.811Z,2.33
2023-11-04T06:55:34.738Z,2.40
2023-11-04T06:58:11.520Z,1.98
2023-11-04T07:00:44.233Z,1.90
2023-11-04T07:03:19.388Z,1.55
2023-11-04T07:05:52.393Z,2.00
2023-11-04T07:08:25.560Z,2.03
2023-11-04T07:10:58.869Z,1.50
2023-11-04T07:13:36.028Z,1.92
2023-11-04T07:16:13.690Z,2.00
2023-11-04T07:18:47.042Z,2.15
2023-11-04T07:21:21.020Z,2.40
2023-11-04T07:23:55.660Z,1.75
2023-11-04T07:26:28.369Z,1.70
2023-11-04T07:29:01.892Z,1.88
2023-11-04T07:31:37.100Z,2.08
2023-11-04T07:34:13.804Z,2.00
2023-11-04T07:36:48.271Z,1.95
2023-11-04T07:39:21.405Z,1.95
2023-11-04T07:41:54.130Z,2.17
2023-11-04T07:44:27.735Z,2.25
2023-11-04T07:47:01.729Z,2.22
2023-11-04T07:49:36.161Z,2.20
2023-11-04T07:52:10.810Z,3.00
2023-11-04T07:54:44.078Z,1.90
2023-11-04T07:57:16.812Z,2.33
2023-11-04T07:59:49.812Z,2.30
2023-11-04T08:02:22.487Z,1.95
2023-11-04T08:04:55.457Z,2.42
2023-11-04T08:07:28.552Z,2.28
2023-11-04T08:10:01.660Z,2.08
2023-11-04T08:12:34.903Z,2.00
2023-11-04T08:15:08.160Z,2.60
2023-11-04T08:17:43.939Z,2.25
2023-11-04T08:20:17.388Z,1.98
2023-11-04T08:22:50.508Z,2.13
2023-11-04T08:25:23.540Z,3.03
2023-11-04T08:27:56.309Z,2.35
2023-11-04T08:30:29.472Z,2.08
2023-11-04T08:33:02.491Z,2.50
2023-11-04T08:35:35.666Z,2.63
2023-11-04T08:38:08.403Z,3.10
2023-11-04T08:40:41.518Z,4.32
2023-11-04T08:43:14.295Z,2.88
2023-11-04T08:45:47.392Z,4.40
2023-11-04T08:48:20.293Z,5.00
2023-11-04T08:50:53.546Z,5.45
2023-11-04T08:53:26.150Z,4.82
2023-11-04T08:55:59.677Z,2.60
2023-11-04T08:58:32.339Z,1.35
2023-11-04T09:01:06.321Z,1.52
2023-11-04T09:03:48.166Z,1.50
2023-11-04T09:06:28.352Z,1.60
2023-11-04T09:09:02.343Z,1.33
2023-11-04T09:11:40.568Z,3.25
2023-11-04T09:14:13.289Z,1.63
2023-11-04T09:16:51.155Z,1.52
2023-11-04T09:19:25.044Z,1.75
2023-11-04T09:21:58.048Z,1.95
2023-11-04T09:27:24.063Z,1.27
2023-11-04T09:29:57.549Z,1.95
2023-11-04T09:32:30.224Z,1.67
2023-11-04T09:35:05.170Z,1.42
2023-11-04T09:37:38.847Z,1.45
2023-11-04T09:40:12.696Z,1.45
2023-11-04T09:42:48.971Z,1.48
2023-11-04T09:45:23.689Z,1.90
2023-11-04T09:47:57.524Z,2.17
2023-11-04T09:50:31.410Z,1.88
2023-11-04T09:53:09.001Z,1.25
2023-11-04T09:55:42.457Z,1.30
2023-11-04T09:58:15.630Z,1.15
2023-11-04T10:00:48.734Z,1.92
2023-11-04T10:03:22.102Z,1.60
2023-11-04T10:05:55.867Z,1.90
2023-11-04T10:08:28.519Z,1.73
2023-11-04T10:11:01.592Z,1.10
2023-11-04T10:13:34.239Z,1.30
2023-11-04T10:16:07.479Z,1.40
2023-11-04T10:18:40.779Z,2.63
2023-11-04T10:21:13.832Z,1.55
2023-11-04T10:23:46.938Z,1.50
2023-11-04T10:26:20.035Z,1.25
2023-11-04T10:28:55.631Z,1.10
2023-11-04T10:31:30.476Z,1.52
2023-11-04T10:34:05.633Z,1.60
2023-11-04T10:36:39.494Z,1.48
2023-11-04T10:39:13.128Z,1.80
2023-11-04T10:41:54.726Z,1.50
2023-11-04T10:44:29.337Z,1.45
2023-11-04T10:47:11.792Z,1.85
2023-11-04T10:49:51.787Z,1.30
2023-11-04T10:52:27.708Z,1.60
2023-11-04T10:55:00.900Z,1.77
2023-11-04T10:57:41.804Z,2.13
2023-11-04T11:00:21.580Z,1.40
2023-11-04T11:02:54.816Z,1.70
2023-11-04T11:05:29.085Z,2.10
2023-11-04T11:08:03.075Z,1.92
2023-11-04T11:10:40.590Z,2.05
2023-11-04T11:13:13.573Z,1.13
2023-11-04T11:15:48.344Z,1.40
2023-11-04T11:18:28.134Z,1.27
2023-11-04T11:21:11.158Z,2.00
2023-11-04T11:23:44.426Z,1.38
2023-11-04T11:26:17.057Z,1.63
2023-11-04T11:28:51.756Z,1.73
2023-11-04T11:31:29.574Z,1.88
2023-11-04T11:34:08.256Z,1.40
2023-11-04T11:36:43.760Z,1.48
2023-11-04T11:39:17.060Z,1.25
2023-11-04T11:41:50.046Z,1.42
2023-11-04T11:44:23.287Z,1.42
2023-11-04T11:46:56.175Z,1.50
2023-11-04T11:49:29.516Z,1.42
2023-11-04T11:52:02.963Z,1.33
2023-11-04T11:54:36.226Z,1.08
2023-11-04T11:57:11.234Z,1.65
2023-11-04T11:59:44.276Z,1.30
2023-11-04T12:02:17.131Z,1.40
2023-11-04T12:04:50.220Z,1.00
2023-11-04T12:07:22.912Z,2.08
2023-11-04T12:09:55.943Z,1.15
